Time;durP1;ratioP1;P1;durP2;ratioP2;P2;SDS_P1;SDS_P2;PMS_P1;PMS_P2;Temp;Humidity;BMP_temperature;BMP_pressure;BME280_temperature;BME280_humidity;BME280_pressure;Samples;Min_cycle;Max_cycle;Signal;HPM_P1;HPM_P2
2022/03/24 00:00:10;;;;;;;;;;;;;;;12.71;72.77;100154.06;5054812;28;19932;-60
2022/03/24 00:02:39;;;;;;;;;;;;;;;12.42;74.44;100148.69;5054651;28;20291;-59
2022/03/24 00:05:14;;;;;;;;;;;;;;;12.44;74.98;100145.16;5053316;28;20394;-58
2022/03/24 00:07:41;;;;;;;;;;;;;;;12.41;73.82;100141.81;5055532;28;20001;-58
2022/03/24 00:10:10;;;;;;;;;;;;;;;13.05;68.61;100135.19;5056691;28;19912;-57
2022/03/24 00:12:36;;;;;;;;;;;;;;;12.62;68.88;100138.75;5055729;28;19916;-59
2022/03/24 00:15:07;;;;;;;;;;;;;;;12.92;66.22;100129.44;5058429;28;19958;-59
2022/03/24 00:17:35;;;;;;;;;;;;;;;12.07;74.40;100143.34;5057629;28;19946;-60
2022/03/24 00:20:03;;;;;;;;;;;;;;;12.76;70.64;100135.88;5053034;28;19920;-59
2022/03/24 00:22:28;;;;;;;;;;;;;;;12.67;69.98;100136.06;5060747;28;19999;-59
2022/03/24 00:24:56;;;;;;;;;;;;;;;12.61;73.99;100131.03;5058868;28;20401;-59
2022/03/24 00:27:25;;;;;;;;;;;;;;;13.15;67.65;100122.88;5058831;28;19924;-60
2022/03/24 00:29:51;;;;;;;;;;;;;;;13.16;68.72;100127.19;5056761;28;19928;-59
2022/03/24 00:32:20;;;;;;;;;;;;;;;12.71;74.52;100135.97;5058918;28;19943;-59
2022/03/24 00:34:55;;;;;;;;;;;;;;;12.19;77.97;100131.91;5056649;28;19916;-59
2022/03/24 00:37:31;;;;;;;;;;;;;;;12.21;81.03;100131.91;5060274;28;19916;-60
2022/03/24 00:40:06;;;;;;;;;;;;;;;12.76;73.29;100117.78;5041291;28;20468;-57
2022/03/24 00:42:32;;;;;;;;;;;;;;;12.76;72.28;100128.09;5058323;28;20011;-57
2022/03/24 00:44:57;;;;;;;;;;;;;;;12.22;77.99;100129.25;5065036;28;20441;-59
2022/03/24 00:47:23;;;;;;;;;;;;;;;12.03;82.11;100126.22;5060926;28;20432;-60
2022/03/24 00:52:49;;;;;;;;;;;;;;;11.99;86.21;100118.56;5060093;28;19969;-58
2022/03/24 00:55:21;;;;;;;;;;;;;;;11.86;88.64;100128.22;5057114;28;19999;-57
2022/03/24 00:57:50;;;;;;;;;;;;;;;11.59;88.11;100120.16;5057646;28;20075;-59
2022/03/24 01:00:20;;;;;;;;;;;;;;;11.32;88.10;100125.78;5058472;28;20012;-56
2022/03/24 01:12:05;;;;;;;;;;;;;;;11.72;81.82;100116.47;5054907;28;19930;-59
2022/03/24 01:14:35;;;;;;;;;;;;;;;11.65;84.60;100114.84;5066087;28;20468;-59
2022/03/24 01:20:19;;;;;;;;;;;;;;;11.68;83.93;100109.66;5026682;28;19916;-58
2022/03/24 01:22:48;;;;;;;;;;;;;;;11.59;83.35;100109.81;5054967;28;19974;-60
2022/03/24 01:25:20;;;;;;;;;;;;;;;12.04;78.52;100107.28;5058574;28;19962;-60
2022/03/24 01:27:46;;;;;;;;;;;;;;;12.22;75.60;100110.34;5057410;28;19928;-58
2022/03/24 01:30:20;;;;;;;;;;;;;;;12.46;72.36;100106.41;5040425;28;19935;-59
2022/03/24 01:32:46;;;;;;;;;;;;;;;11.39;79.63;100114.50;5040215;28;20294;-57
2022/03/24 01:35:15;;;;;;;;;;;;;;;9.72;95.52;100133.09;5059121;28;19923;-59
2022/03/24 01:40:19;;;;;;;;;;;;;;;9.71;100.00;100128.78;5063879;22;21797;-79
2022/03/24 01:42:44;;;;;;;;;;;;;;;11.04;94.04;100118.50;5093937;27;19931;-79
2022/03/24 01:45:10;;;;;;;;;;;;;;;11.57;87.02;100110.72;5091724;27;19926;-79
2022/03/24 01:47:35;;;;;;;;;;;;;;;11.58;83.12;100109.84;5096066;27;19963;-79
2022/03/24 01:50:01;;;;;;;;;;;;;;;11.69;81.15;100113.91;5095517;27;19927;-79
2022/03/24 01:52:26;;;;;;;;;;;;;;;11.05;83.59;100115.88;5097635;27;20296;-80
2022/03/24 01:54:54;;;;;;;;;;;;;;;11.33;87.14;100112.00;5098531;27;19900;-79
2022/03/24 01:57:21;;;;;;;;;;;;;;;10.87;92.35;100119.59;5094771;27;20360;-79
2022/03/24 01:59:46;;;;;;;;;;;;;;;10.40;95.09;100128.00;5097100;27;19920;-79
2022/03/24 02:02:12;;;;;;;;;;;;;;;11.02;95.03;100112.53;5094151;27;19916;-79
2022/03/24 02:04:37;;;;;;;;;;;;;;;10.67;94.86;100113.88;5097852;27;19926;-79
2022/03/24 02:07:03;;;;;;;;;;;;;;;10.89;94.67;100106.69;5083533;27;19916;-79
2022/03/24 02:09:28;;;;;;;;;;;;;;;10.24;96.60;100124.75;5099098;27;19979;-80
2022/03/24 02:11:54;;;;;;;;;;;;;;;9.70;100.00;100124.53;5098121;27;19982;-79
2022/03/24 02:14:19;;;;;;;;;;;;;;;9.31;100.00;100126.63;5096581;27;19927;-79
2022/03/24 02:16:47;;;;;;;;;;;;;;;9.39;100.00;100124.81;5097048;27;19971;-79
2022/03/24 02:19:13;;;;;;;;;;;;;;;9.26;100.00;100123.22;5082079;28;19916;-79
2022/03/24 02:21:41;;;;;;;;;;;;;;;8.96;100.00;100122.59;5097458;27;20700;-81
2022/03/24 02:24:07;;;;;;;;;;;;;;;9.15;100.00;100121.59;5100443;27;20388;-79
2022/03/24 02:26:35;;;;;;;;;;;;;;;9.35;100.00;100115.41;5099867;27;19931;-80
2022/03/24 02:29:01;;;;;;;;;;;;;;;9.05;100.00;100114.81;5102119;27;19926;-79
2022/03/24 02:31:30;;;;;;;;;;;;;;;8.32;100.00;100119.50;5100144;27;19911;-80
2022/03/24 02:34:37;;;;;;;;;;;;;;;8.40;100.00;100114.41;5098064;28;19923;-79
2022/03/24 02:36:41;;;;;;;;;;;;;;;9.06;100.00;100106.25;5101427;27;19926;-79
2022/03/24 02:39:06;;;;;;;;;;;;;;;9.27;100.00;100101.78;5117915;27;20325;-79
2022/03/24 02:41:31;;;;;;;;;;;;;;;9.66;96.99;100102.28;5081168;27;19919;-79
2022/03/24 02:43:57;;;;;;;;;;;;;;;9.68;93.71;100100.53;5116495;27;19934;-78
2022/03/24 02:46:23;;;;;;;;;;;;;;;9.92;93.46;100104.53;5096599;28;19989;-79
2022/03/24 02:48:49;;;;;;;;;;;;;;;9.53;92.61;100107.53;5097071;27;20360;-79
2022/03/24 02:51:14;;;;;;;;;;;;;;;9.24;96.51;100112.09;5098901;27;19919;-79
2022/03/24 02:53:39;;;;;;;;;;;;;;;8.68;100.00;100112.50;5096901;27;19919;-79
2022/03/24 02:56:04;;;;;;;;;;;;;;;8.53;100.00;100115.16;5077579;27;20338;-79
2022/03/24 02:58:30;;;;;;;;;;;;;;;8.37;100.00;100115.22;5098509;27;19920;-79
2022/03/24 03:00:55;;;;;;;;;;;;;;;8.30;100.00;100123.81;5113852;27;19919;-79
2022/03/24 03:03:23;;;;;;;;;;;;;;;7.71;100.00;100118.03;5077785;27;20056;-79
2022/03/24 03:05:48;;;;;;;;;;;;;;;8.35;100.00;100118.66;5098177;27;19944;-79
2022/03/24 03:08:14;;;;;;;;;;;;;;;8.40;100.00;100118.66;5114486;27;19919;-79
2022/03/24 03:10:40;;;;;;;;;;;;;;;8.97;100.00;100114.88;5107882;27;19993;-79
2022/03/24 03:13:08;;;;;;;;;;;;;;;8.56;99.23;100115.16;5092855;27;19920;-79
2022/03/24 03:15:35;;;;;;;;;;;;;;;9.05;97.85;100114.81;5078011;27;20287;-78
2022/03/24 03:18:02;;;;;;;;;;;;;;;8.69;96.67;100116.78;5091228;27;20364;-79
2022/03/24 03:20:27;;;;;;;;;;;;;;;8.90;97.96;100113.22;5093418;27;19930;-79
2022/03/24 03:22:54;;;;;;;;;;;;;;;8.64;98.40;100118.53;5094819;27;19915;-79
2022/03/24 03:25:20;;;;;;;;;;;;;;;8.40;100.00;100118.66;5112703;27;19920;-79
2022/03/24 03:27:45;;;;;;;;;;;;;;;8.48;100.00;100122.88;5109719;27;20484;-78
2022/03/24 03:30:12;;;;;;;;;;;;;;;7.80;100.00;100121.44;5111804;27;19971;-79
2022/03/24 03:32:37;;;;;;;;;;;;;;;8.16;100.00;100126.47;5094931;27;19954;-79
2022/03/24 03:35:02;;;;;;;;;;;;;;;8.12;100.00;100122.19;5092683;27;20928;-79
2022/03/24 03:37:28;;;;;;;;;;;;;;;8.34;100.00;100120.38;5093794;28;19915;-79
2022/03/24 03:39:53;;;;;;;;;;;;;;;8.33;100.00;100128.09;5090177;28;20281;-79
2022/03/24 03:42:19;;;;;;;;;;;;;;;8.28;100.00;100125.53;5096354;28;20375;-79
2022/03/24 03:44:44;;;;;;;;;;;;;;;7.68;100.00;100112.91;5092695;28;19920;-78
2022/03/24 03:47:10;;;;;;;;;;;;;;;8.31;100.00;100125.53;5078097;27;19922;-79
2022/03/24 03:49:35;;;;;;;;;;;;;;;8.92;100.00;100115.78;5098598;27;19923;-78
2022/03/24 03:52:00;;;;;;;;;;;;;;;8.53;100.00;100115.16;5098996;27;19926;-78
2022/03/24 03:54:26;;;;;;;;;;;;;;;8.56;100.00;100115.16;5095935;27;20665;-78
2022/03/24 03:56:52;;;;;;;;;;;;;;;8.41;100.00;100125.50;5116121;27;19919;-78
2022/03/24 03:59:17;;;;;;;;;;;;;;;8.96;99.80;100114.88;5119932;27;20018;-79
2022/03/24 04:01:43;;;;;;;;;;;;;;;8.27;99.23;100121.25;5099852;27;19920;-78
2022/03/24 04:04:12;;;;;;;;;;;;;;;8.32;100.00;100122.06;5097077;27;19943;-79
2022/03/24 04:06:37;;;;;;;;;;;;;;;8.34;100.00;100115.22;5117218;27;19923;-79
2022/03/24 04:09:03;;;;;;;;;;;;;;;8.30;100.00;100108.44;5097850;27;19923;-79
2022/03/24 04:11:28;;;;;;;;;;;;;;;8.25;100.00;100110.13;5099808;27;19911;-79
2022/03/24 04:13:53;;;;;;;;;;;;;;;7.90;100.00;100112.88;5096376;27;19916;-79
2022/03/24 04:16:19;;;;;;;;;;;;;;;7.96;100.00;100106.00;5118353;27;19916;-79
2022/03/24 04:18:46;;;;;;;;;;;;;;;7.90;100.00;100108.59;5083929;27;20368;-79
2022/03/24 04:21:11;;;;;;;;;;;;;;;7.73;100.00;100106.06;5080844;27;20273;-79
2022/03/24 04:23:37;;;;;;;;;;;;;;;7.27;100.00;100111.25;5082954;27;19923;-79
2022/03/24 04:26:03;;;;;;;;;;;;;;;7.40;100.00;100109.56;5101282;27;20185;-79
2022/03/24 04:28:28;;;;;;;;;;;;;;;7.23;100.00;100112.13;5098781;27;19958;-79
2022/03/24 04:30:54;;;;;;;;;;;;;;;7.00;100.00;100111.25;5096652;27;20012;-79
2022/03/24 04:33:19;;;;;;;;;;;;;;;7.24;100.00;100111.28;5094766;27;19920;-79
2022/03/24 04:35:44;;;;;;;;;;;;;;;7.38;100.00;100111.25;5097175;27;19972;-78
2022/03/24 04:38:10;;;;;;;;;;;;;;;7.29;100.00;100111.25;5098750;27;19927;-79
2022/03/24 04:40:35;;;;;;;;;;;;;;;7.21;100.00;100115.56;5117387;27;19919;-80
2022/03/24 04:43:00;;;;;;;;;;;;;;;6.99;100.00;100115.53;5101642;27;19942;-79
2022/03/24 04:45:27;;;;;;;;;;;;;;;7.06;100.00;100112.13;5098062;27;19919;-79
2022/03/24 04:47:52;;;;;;;;;;;;;;;6.84;100.00;100111.28;5117043;27;20626;-78
2022/03/24 04:50:17;;;;;;;;;;;;;;;6.98;100.00;100111.28;5096036;27;19962;-78
2022/03/24 04:52:43;;;;;;;;;;;;;;;6.95;100.00;100108.72;5116770;27;20006;-78
2022/03/24 04:55:08;;;;;;;;;;;;;;;6.94;100.00;100111.28;5096871;27;19926;-78
2022/03/24 04:57:34;;;;;;;;;;;;;;;6.72;100.00;100110.41;5077070;27;19920;-78
2022/03/24 05:00:03;;;;;;;;;;;;;;;6.49;100.00;100109.50;5098741;27;19972;-78
2022/03/24 05:02:29;;;;;;;;;;;;;;;6.44;100.00;100112.91;5119879;27;19927;-79
2022/03/24 05:04:54;;;;;;;;;;;;;;;6.52;100.00;100118.03;5093120;27;20293;-79
2022/03/24 05:07:19;;;;;;;;;;;;;;;6.33;100.00;100122.25;5095202;27;19916;-79
2022/03/24 05:09:53;;;;;;;;;;;;;;;6.36;100.00;100117.13;5092054;27;20453;-79
2022/03/24 05:12:18;;;;;;;;;;;;;;;6.56;100.00;100120.59;5099193;27;20024;-79
2022/03/24 05:14:44;;;;;;;;;;;;;;;6.65;100.00;100118.06;5112875;27;19923;-78
2022/03/24 05:17:09;;;;;;;;;;;;;;;6.52;100.00;100113.75;5114675;27;19923;-79
2022/03/24 05:19:34;;;;;;;;;;;;;;;6.48;100.00;100117.19;5093118;27;20002;-79
2022/03/24 05:22:00;;;;;;;;;;;;;;;6.44;100.00;100115.47;5113712;27;19926;-79
2022/03/24 05:24:25;;;;;;;;;;;;;;;6.54;100.00;100111.22;5078321;27;19923;-80
2022/03/24 05:26:50;;;;;;;;;;;;;;;6.21;100.00;100118.78;5112201;27;20358;-80
2022/03/24 05:29:16;;;;;;;;;;;;;;;6.61;100.00;100116.34;5095749;27;19955;-80
2022/03/24 05:31:41;;;;;;;;;;;;;;;6.38;100.00;100121.41;5091628;27;20312;-80
2022/03/24 05:34:07;;;;;;;;;;;;;;;6.34;100.00;100122.25;5088099;27;19958;-79
2022/03/24 05:36:32;;;;;;;;;;;;;;;6.27;100.00;100112.84;5105310;27;20397;-79
2022/03/24 05:38:57;;;;;;;;;;;;;;;6.67;100.00;100113.78;5109967;27;19969;-79
2022/03/24 05:41:23;;;;;;;;;;;;;;;6.55;100.00;100108.66;5078898;27;19926;-79
2022/03/24 05:44:03;;;;;;;;;;;;;;;6.64;100.00;100110.41;5079133;28;19927;-77
2022/03/24 05:46:32;;;;;;;;;;;;;;;6.60;100.00;100113.78;5088879;27;19923;-79
2022/03/24 05:48:58;;;;;;;;;;;;;;;6.90;100.00;100110.41;5092294;27;20367;-78
2022/03/24 05:51:23;;;;;;;;;;;;;;;6.70;100.00;100121.50;5096199;27;20710;-79
2022/03/24 05:53:49;;;;;;;;;;;;;;;6.81;100.00;100120.66;5078084;27;19922;-79
2022/03/24 05:56:14;;;;;;;;;;;;;;;6.64;100.00;100116.38;5089279;27;19972;-78
2022/03/24 05:58:39;;;;;;;;;;;;;;;6.91;100.00;100117.22;5092416;27;19960;-79
2022/03/24 06:01:05;;;;;;;;;;;;;;;7.10;100.00;100115.56;5110021;27;19991;-78
2022/03/24 06:03:30;;;;;;;;;;;;;;;6.97;100.00;100122.38;5087383;27;19960;-79
2022/03/24 06:05:59;;;;;;;;;;;;;;;7.07;100.00;100124.09;5092583;27;20414;-78
2022/03/24 06:08:24;;;;;;;;;;;;;;;6.69;100.00;100119.78;5093616;27;19958;-78
2022/03/24 06:10:51;;;;;;;;;;;;;;;7.03;100.00;100119.81;5091990;27;19958;-78
2022/03/24 06:13:17;;;;;;;;;;;;;;;7.11;100.00;100114.69;5094584;27;19915;-78
2022/03/24 06:15:42;;;;;;;;;;;;;;;7.08;100.00;100118.09;5076872;27;20388;-79
2022/03/24 06:18:07;;;;;;;;;;;;;;;7.19;100.00;100123.25;5111577;27;20439;-80
2022/03/24 06:20:32;;;;;;;;;;;;;;;7.81;100.00;100121.44;5111562;27;19976;-78
2022/03/24 06:22:58;;;;;;;;;;;;;;;7.54;100.00;100119.78;5092023;27;19920;-78
2022/03/24 06:25:23;;;;;;;;;;;;;;;8.00;100.00;100118.81;5111725;27;19915;-78
2022/03/24 06:27:50;;;;;;;;;;;;;;;8.48;100.00;100124.59;5107112;27;19923;-78
2022/03/24 06:30:15;;;;;;;;;;;;;;;9.07;98.51;100118.22;5104498;27;19920;-77
2022/03/24 06:32:40;;;;;;;;;;;;;;;8.88;98.86;100116.66;5093835;27;19915;-79
2022/03/24 06:35:08;;;;;;;;;;;;;;;9.17;98.13;100107.00;5091657;27;20154;-79
2022/03/24 06:37:39;;;;;;;;;;;;;;;9.34;96.96;100118.88;5089659;27;19912;-78
2022/03/24 06:40:06;;;;;;;;;;;;;;;9.28;95.60;100121.47;5106867;27;20343;-79
2022/03/24 06:42:31;;;;;;;;;;;;;;;9.32;96.22;100124.00;5106358;27;20373;-78
2022/03/24 06:44:56;;;;;;;;;;;;;;;9.40;95.43;100119.66;5074617;27;19924;-78
2022/03/24 06:47:22;;;;;;;;;;;;;;;9.43;94.37;100119.63;5085472;27;19915;-79
2022/03/24 06:49:47;;;;;;;;;;;;;;;9.40;94.51;100117.09;5097232;27;19926;-78
2022/03/24 06:52:12;;;;;;;;;;;;;;;9.45;94.06;100124.75;5086410;27;19959;-79
2022/03/24 06:54:38;;;;;;;;;;;;;;;9.88;91.79;100123.47;5085123;27;20010;-79
2022/03/24 06:57:03;;;;;;;;;;;;;;;9.50;92.58;100125.56;5084199;27;19959;-80
2022/03/24 06:59:28;;;;;;;;;;;;;;;9.48;93.89;100124.72;5074843;27;19960;-80
2022/03/24 07:01:54;;;;;;;;;;;;;;;9.95;93.57;100125.97;5087776;27;19922;-79
2022/03/24 07:04:19;;;;;;;;;;;;;;;10.15;92.45;100127.44;5082575;27;19915;-79
2022/03/24 07:06:44;;;;;;;;;;;;;;;10.43;90.26;100118.53;5082652;28;19920;-80
2022/03/24 07:09:10;;;;;;;;;;;;;;;10.39;91.40;100127.16;5083590;27;19941;-79
2022/03/24 07:11:35;;;;;;;;;;;;;;;10.56;90.19;100123.50;5078531;27;19920;-79
2022/03/24 07:14:01;;;;;;;;;;;;;;;10.51;92.35;100130.44;5066198;27;19912;-78
2022/03/24 07:16:26;;;;;;;;;;;;;;;10.72;93.60;100125.00;5104182;27;19976;-79
2022/03/24 07:18:52;;;;;;;;;;;;;;;10.98;90.14;100126.34;5097505;27;19998;-79
2022/03/24 07:21:17;;;;;;;;;;;;;;;11.38;90.12;100123.97;5079495;27;20003;-80
2022/03/24 07:23:43;;;;;;;;;;;;;;;11.22;89.06;100125.94;5088948;27;19916;-79
2022/03/24 07:26:09;;;;;;;;;;;;;;;11.62;87.37;100130.41;5088405;28;19916;-80
2022/03/24 07:28:35;;;;;;;;;;;;;;;12.02;86.27;100121.94;5084018;27;19919;-79
2022/03/24 07:31:07;;;;;;;;;;;;;;;11.99;86.49;100127.16;5085155;28;20004;-80
2022/03/24 07:33:32;;;;;;;;;;;;;;;12.60;85.40;100127.59;5094572;27;20811;-80
2022/03/24 07:35:58;;;;;;;;;;;;;;;12.37;86.14;100135.84;5085134;28;19916;-79
2022/03/24 07:38:23;;;;;;;;;;;;;;;11.99;85.53;100132.31;5102336;27;19916;-79
2022/03/24 07:40:48;;;;;;;;;;;;;;;12.80;85.03;100145.25;5095369;28;19923;-79
2022/03/24 07:43:14;;;;;;;;;;;;;;;13.28;83.05;100142.41;5088831;28;20389;-79
2022/03/24 07:45:39;;;;;;;;;;;;;;;12.94;82.95;100142.34;5094381;28;19912;-79
2022/03/24 07:55:50;;;;;;;;;;;;;;;13.26;83.81;100144.16;1494753;26;20240;-60
2022/03/24 07:58:16;;;;;;;;;;;;;;;13.76;81.07;100149.81;5087571;28;20011;-60
2022/03/24 08:00:43;;;;;;;;;;;;;;;14.12;79.17;100147.09;5090475;28;19935;-60
2022/03/24 08:03:26;;;;;;;;;;;;;;;14.31;77.22;100144.00;5055182;28;20361;-60
2022/03/24 08:05:52;;;;;;;;;;;;;;;14.35;75.72;100153.38;5070527;28;19916;-59
2022/03/24 08:08:17;;;;;;;;;;;;;;;15.13;72.63;100152.75;5076436;28;20293;-60
2022/03/24 08:10:45;;;;;;;;;;;;;;;14.28;74.86;100146.66;5084523;28;19919;-56
2022/03/24 08:13:11;;;;;;;;;;;;;;;14.96;74.18;100154.16;5084530;28;19919;-60
2022/03/24 08:15:37;;;;;;;;;;;;;;;13.78;88.80;100165.31;5082741;28;19911;-59
2022/03/24 08:18:05;;;;;;;;;;;;;;;13.36;94.83;100166.38;5071162;28;20289;-61
2022/03/24 08:20:31;;;;;;;;;;;;;;;12.86;99.76;100173.53;5085756;28;19935;-61
2022/03/24 08:32:41;;;;;;;;;;;;;;;;;;;;;
2022/03/24 08:35:16;;;;;;;;;;;;;;;14.56;91.27;100181.28;4988512;28;19913;-61
2022/03/24 08:37:42;;;;;;;;;;;;;;;14.90;83.78;100176.84;4976074;28;20287;-60
2022/03/24 08:40:56;;;;;;;;;;;;;;;16.05;76.77;100170.41;4996849;28;19956;-59
2022/03/24 08:46:25;;;;;;;;;;;;;;;15.53;74.44;100174.78;5000013;28;20502;-60
2022/03/24 08:48:50;;;;;;;;;;;;;;;15.00;75.90;100183.41;4992841;28;20352;-60
2022/03/24 08:51:34;;;;;;;;;;;;;;;14.69;75.11;100178.31;4991426;28;19914;-57
2022/03/24 08:53:59;;;;;;;;;;;;;;;15.27;72.08;100179.09;4997135;28;19948;-60
2022/03/24 09:00:00;;;;;;;;;;;;;;;15.05;70.72;100187.56;4989070;28;20029;-59
2022/03/24 09:02:25;;;;;;;;;;;;;;;15.65;69.57;100182.19;5006789;28;19913;-60
2022/03/24 09:11:49;;;;;;;;;;;;;;;16.05;63.40;100186.84;5009125;28;20414;-60
2022/03/24 10:01:31;;;;;;;;;;;;;;;16.37;65.76;100197.00;4792090;29;19928;-60
2022/03/24 10:07:16;;;;;;;;;;;;;;;16.85;58.86;100183.91;4808285;29;20580;-59
2022/03/24 10:13:10;;;;;;;;;;;;;;;17.13;50.50;100181.09;4825753;29;19999;-61
2022/03/24 10:15:58;;;;;;;;;;;;;;;16.87;56.80;100184.69;4858908;29;19924;-61
2022/03/24 10:31:09;;;;;;;;;;;;;;;18.66;45.30;100170.16;4855080;29;20368;-61
2022/03/24 10:33:36;;;;;;;;;;;;;;;19.22;46.28;100161.38;4865123;29;19916;-60
2022/03/24 10:42:14;;;;;;;;;;;;;;;19.98;43.24;100163.69;4860161;29;19916;-62
2022/03/24 10:44:58;;;;;;;;;;;;;;;19.67;42.11;100163.56;4859409;29;19927;-61
2022/03/24 11:19:27;;;;;;;;;;;;;;;19.19;39.42;100145.03;4934330;28;19934;-60
2022/03/24 11:21:57;;;;;;;;;;;;;;;20.78;38.28;100138.47;4933682;29;19918;-59
2022/03/24 11:52:02;;;;;;;;;;;;;;;20.44;43.00;100121.97;5043989;28;19913;-59
2022/03/24 12:13:24;;;;;;;;;;;;;;;20.85;34.13;100087.44;5004282;28;20008;-61
2022/03/24 12:16:08;;;;;;;;;;;;;;;21.69;36.14;100100.00;4973857;28;19973;-61
2022/03/24 12:18:40;;;;;;;;;;;;;;;20.28;36.95;100105.44;4976657;28;19929;-61
2022/03/24 12:40:02;;;;;;;;;;;;;;;21.86;36.00;100082.41;5040059;28;19917;-68
2022/03/24 12:42:27;;;;;;;;;;;;;;;22.25;35.22;100080.88;5037657;28;19927;-60
2022/03/24 12:44:56;;;;;;;;;;;;;;;22.59;35.61;100078.72;5024028;28;20402;-60
2022/03/24 12:47:38;;;;;;;;;;;;;;;22.53;35.84;100066.81;5044065;28;20350;-60
2022/03/24 12:50:08;;;;;;;;;;;;;;;23.19;36.04;100067.75;5038828;28;20135;-60
2022/03/24 12:58:49;;;;;;;;;;;;;;;22.16;36.83;100053.41;5040157;28;19928;-61
2022/03/24 13:01:16;;;;;;;;;;;;;;;20.58;34.82;100060.22;5015826;28;19921;-62
2022/03/24 13:03:41;;;;;;;;;;;;;;;22.16;36.53;100065.69;4998674;28;19921;-59
2022/03/24 13:06:06;;;;;;;;;;;;;;;21.83;35.42;100064.25;5038075;28;19966;-62
2022/03/24 13:08:32;;;;;;;;;;;;;;;22.54;36.29;100052.78;5044480;28;19920;-61
2022/03/24 13:11:01;;;;;;;;;;;;;;;22.93;35.75;100041.41;5047278;28;20008;-61
2022/03/24 13:13:27;;;;;;;;;;;;;;;22.00;33.57;100045.66;5055032;28;19924;-62
2022/03/24 13:18:55;;;;;;;;;;;;;;;22.34;35.14;100038.31;5065931;28;19946;-61
2022/03/24 13:21:23;;;;;;;;;;;;;;;22.64;34.00;100034.63;5068415;28;19916;-61
2022/03/24 13:23:55;;;;;;;;;;;;;;;22.57;35.72;100039.44;5068627;28;19912;-60
2022/03/24 14:28:37;;;;;;;;;;;;;;;21.57;32.35;100001.13;5081387;27;19964;-61
2022/03/24 14:31:12;;;;;;;;;;;;;;;21.82;31.38;99999.59;5066515;28;19920;-61
2022/03/24 14:33:47;;;;;;;;;;;;;;;21.90;30.97;99994.72;5065906;28;20371;-60
2022/03/24 14:36:13;;;;;;;;;;;;;;;22.02;32.00;100000.97;5066427;28;19968;-61
2022/03/24 14:38:38;;;;;;;;;;;;;;;20.73;33.58;100001.72;5066717;28;19963;-60
2022/03/24 14:41:09;;;;;;;;;;;;;;;20.00;34.31;100004.97;5064981;28;19925;-61
2022/03/24 14:43:36;;;;;;;;;;;;;;;20.64;33.45;100005.75;5049679;28;19991;-61
2022/03/24 14:46:03;;;;;;;;;;;;;;;20.40;33.48;99997.50;5032484;28;19921;-61
2022/03/24 14:48:29;;;;;;;;;;;;;;;21.56;34.27;99998.63;5047312;28;19924;-61
2022/03/24 14:50:58;;;;;;;;;;;;;;;20.61;32.83;99992.81;5066275;28;19952;-61
2022/03/24 14:53:26;;;;;;;;;;;;;;;20.59;35.25;99993.84;5065514;28;19916;-61
2022/03/24 14:55:52;;;;;;;;;;;;;;;21.86;33.79;99982.75;5065447;28;19917;-60
2022/03/24 15:01:40;;;;;;;;;;;;;;;21.02;32.90;99986.94;5060735;28;19943;-61
2022/03/24 15:04:05;;;;;;;;;;;;;;;21.63;32.33;99979.78;5065128;28;19916;-60
2022/03/24 15:06:31;;;;;;;;;;;;;;;21.12;33.18;99984.63;5065423;28;19920;-61
2022/03/24 15:08:56;;;;;;;;;;;;;;;20.31;34.39;99984.94;5046648;28;20317;-60
2022/03/24 15:11:22;;;;;;;;;;;;;;;20.84;32.82;99981.00;5064729;28;20358;-60
2022/03/24 15:16:31;;;;;;;;;;;;;;;21.33;35.00;99976.41;5065517;28;20593;-61
2022/03/24 15:18:57;;;;;;;;;;;;;;;21.12;36.26;99974.16;5066110;28;19920;-60
2022/03/24 15:21:24;;;;;;;;;;;;;;;20.12;37.40;99981.69;5066395;28;19916;-61
2022/03/24 15:23:54;;;;;;;;;;;;;;;20.84;35.47;99972.31;5065784;28;19920;-61
2022/03/24 15:26:20;;;;;;;;;;;;;;;20.76;34.93;99970.16;5066517;28;19913;-61
2022/03/24 15:28:46;;;;;;;;;;;;;;;20.60;34.62;99967.59;5065901;28;20313;-61
2022/03/24 15:31:11;;;;;;;;;;;;;;;20.75;36.28;99971.06;5066427;28;19916;-61
2022/03/24 15:33:37;;;;;;;;;;;;;;;19.18;35.42;99979.69;5065129;28;19927;-61
2022/03/24 15:36:03;;;;;;;;;;;;;;;19.49;34.13;99974.59;5064436;28;20148;-60
2022/03/24 15:38:28;;;;;;;;;;;;;;;20.53;34.64;99968.03;5063477;28;20332;-61
2022/03/24 15:40:54;;;;;;;;;;;;;;;19.23;33.68;99963.78;5065832;28;19924;-61
2022/03/24 15:43:19;;;;;;;;;;;;;;;20.13;33.92;99967.66;5064157;28;20377;-61
2022/03/24 15:52:12;;;;;;;;;;;;;;;20.21;35.04;99981.16;5063027;28;19927;-61
2022/03/24 15:54:39;;;;;;;;;;;;;;;19.69;34.31;99974.41;5062343;28;19971;-61
2022/03/24 15:57:04;;;;;;;;;;;;;;;19.42;35.63;99972.31;5045322;28;19966;-61
2022/03/24 15:59:30;;;;;;;;;;;;;;;19.34;34.56;99974.50;5061322;28;20382;-61
2022/03/24 16:02:29;;;;;;;;;;;;;;;20.73;35.56;99972.09;5028787;28;19917;-61
2022/03/24 16:04:55;;;;;;;;;;;;;;;21.14;32.96;99963.56;5064096;28;20401;-61
2022/03/24 16:07:20;;;;;;;;;;;;;;;20.29;34.24;99960.63;5047381;28;19966;-61
2022/03/24 16:09:46;;;;;;;;;;;;;;;19.61;35.32;99972.19;5048178;28;20223;-61
2022/03/24 16:12:13;;;;;;;;;;;;;;;20.62;33.98;99960.50;5066274;28;20425;-61
2022/03/24 16:14:39;;;;;;;;;;;;;;;19.52;36.21;99972.66;5065436;28;19920;-60
2022/03/24 16:17:04;;;;;;;;;;;;;;;18.80;37.79;99974.66;5047986;28;19916;-61
2022/03/24 16:19:29;;;;;;;;;;;;;;;20.04;36.87;99969.84;5066926;28;20381;-61
2022/03/24 16:21:55;;;;;;;;;;;;;;;20.55;36.39;99973.97;5066222;28;19916;-61
2022/03/24 16:24:20;;;;;;;;;;;;;;;20.01;34.96;99964.81;5064500;28;19921;-60
2022/03/24 16:26:45;;;;;;;;;;;;;;;19.95;35.47;99975.59;5065912;28;20332;-61
2022/03/24 16:29:12;;;;;;;;;;;;;;;19.66;35.86;99974.56;5065192;28;19921;-61
2022/03/24 16:31:37;;;;;;;;;;;;;;;20.01;36.10;99975.25;5064735;28;20404;-61
2022/03/24 16:34:03;;;;;;;;;;;;;;;20.06;35.00;99977.63;5065264;28;20004;-61
2022/03/24 16:36:29;;;;;;;;;;;;;;;20.04;35.29;99980.31;5063842;28;19926;-60
2022/03/24 16:38:55;;;;;;;;;;;;;;;20.33;34.79;99977.84;5064741;28;20038;-60
2022/03/24 16:41:20;;;;;;;;;;;;;;;20.30;34.46;99980.63;5063177;28;19930;-61
2022/03/24 16:47:19;;;;;;;;;;;;;;;20.91;34.85;99980.66;5062183;28;20011;-61
2022/03/24 16:49:44;;;;;;;;;;;;;;;20.35;33.96;99975.97;5065209;28;19916;-61
2022/03/24 16:52:09;;;;;;;;;;;;;;;19.39;35.25;99982.09;5065490;28;19924;-61
2022/03/24 16:54:35;;;;;;;;;;;;;;;19.59;34.50;99974.03;5066999;28;20050;-61
2022/03/24 16:57:01;;;;;;;;;;;;;;;20.54;35.30;99985.41;5051360;28;19939;-60
2022/03/24 16:59:27;;;;;;;;;;;;;;;20.68;34.21;99977.59;5068981;28;20038;-61
2022/03/24 17:01:52;;;;;;;;;;;;;;;19.90;34.97;99988.06;5069055;28;20321;-61
2022/03/24 17:04:18;;;;;;;;;;;;;;;20.16;34.87;99980.56;5068643;28;19974;-59
2022/03/24 17:06:43;;;;;;;;;;;;;;;20.37;34.12;99981.97;5068983;28;20270;-60
2022/03/24 17:09:08;;;;;;;;;;;;;;;20.32;34.39;99989.25;5069489;28;19912;-60
2022/03/24 17:11:35;;;;;;;;;;;;;;;20.38;33.91;99982.81;5067688;28;19919;-60
2022/03/24 17:14:13;;;;;;;;;;;;;;;20.08;34.76;99985.38;5068170;28;19977;-59
2022/03/24 17:16:38;;;;;;;;;;;;;;;20.57;34.20;99988.72;5070298;28;20001;-59
2022/03/24 17:19:04;;;;;;;;;;;;;;;20.96;33.68;99978.59;5072361;28;19955;-59
2022/03/24 17:21:30;;;;;;;;;;;;;;;20.95;33.23;99985.63;5072532;28;20061;-59
2022/03/24 17:23:55;;;;;;;;;;;;;;;19.95;34.82;99996.50;5072377;28;20433;-58
2022/03/24 17:26:21;;;;;;;;;;;;;;;20.19;34.90;99996.94;5072433;28;20370;-56
2022/03/24 17:28:46;;;;;;;;;;;;;;;19.23;34.88;99993.34;5075894;28;19963;-59
2022/03/24 17:31:11;;;;;;;;;;;;;;;19.76;34.50;99994.06;5068921;28;19922;-58
2022/03/24 17:33:37;;;;;;;;;;;;;;;20.48;33.68;99990.06;5068437;28;19916;-57
2022/03/24 17:36:02;;;;;;;;;;;;;;;20.63;34.01;99998.81;5068796;28;19959;-59
2022/03/24 17:38:28;;;;;;;;;;;;;;;19.66;34.11;100003.31;5068791;28;20329;-60
2022/03/24 17:40:53;;;;;;;;;;;;;;;19.59;34.88;99999.31;5068465;28;19925;-60
2022/03/24 17:43:18;;;;;;;;;;;;;;;18.74;34.98;100006.22;5067913;28;20365;-60
2022/03/24 17:45:44;;;;;;;;;;;;;;;19.63;35.24;100006.06;5065440;28;19927;-58